Leoma, TN (38468)

03:23 AM CST die 30o January, anno 2015 (GMT -0600)
APRSWXNET Lawrenceburg TN US | Change Station
CLOSE
Current Station
Personal Weather Stations
Location: Lawrenceburg, TN
Elevation: 938 ft
Nearby Weather Stations

Elev 938 ft 35.25 °N, 87.33 °W | Updated 23 minutes ago

Aequaliter Nubila
Aequaliter Nubila
39 °F
Feels Like 34 °F
N
7
Ventus Variabilis Ventus from Magis Aquilo quam Zephyrus
Gusts 9.0 mph

Hodie
High -- | Low -- °F
--% Chance of Precip.
Yesterday
High -- | Low -- °F
Precip. -- in
6:50 AM 5:15 PM
Waxing Gibbous, 81% visible
Pressio 30.34 in
Visibilitas 10.0 milia passuum
Clouds Plerumque Nubila 2300 ft
Plerumque Nubila 2900 ft
Aequaliter Nubila 3500 ft
Frigus Venti 34 °F
Frigus in quo Ros apparet 32 °F
Umor 75%
Rainfall 0.00 in
Snow Depth Not available.
UV 0 out of 12
Pollen 3.20 out of 12
Air Quality Not available.
Flu Activity Not available.
METAR KMRC 300915Z AUTO 36008KT 10SM BKN023 BKN029 OVC035 03/01 A3034 RMK

More Conditions Fewer Conditions

Pressio 30.34 in
Visibilitas 10.0 milia passuum
Clouds Plerumque Nubila 2300 ft
Plerumque Nubila 2900 ft
Aequaliter Nubila 3500 ft
Frigus Venti 34 °F
Frigus in quo Ros apparet 32 °F
Umor 75%
Rainfall 0.00 in
Snow Depth Not available.
UV 0 out of 12
Pollen 3.20 out of 12
Air Quality Not available.
Flu Activity Not available.
METAR KMRC 300915Z AUTO 36008KT 10SM BKN023 BKN029 OVC035 03/01 A3034 RMK

More Conditions Fewer Conditions

10-Day Weather Forecast

Almanac

Astronomy

Jan. 30, 2015 Rise Set
Actual Time
Civil Twilight
Nautical Twilight
Astronomical Twilight
Moon
Length Of Visible Light
Length of Day
Tomorrow will be .
, % of the Moon is Illuminated

Today's Extremes

State Highs State Lows

Community

WunderPhotos

Upload Photos

1,791,737 photos uploaded!

WunderBlogs® & News

Nearby

Air Quality

  Air Quality AQ Index Pollutant
Not available.

Snow Depth

Station Depth Elevation

Earthquake Activity

City Distance Mag. Time & Date
Minimum magnitude displayed is 2.5.

Coastal Water Temperatures

Locus Calor

Nearby Weather Stations